sensor_id;sensor_type;location;lat;lon;timestamp;pressure;altitude;pressure_sealevel;temperature;humidity
84501;BME280;74725;44.210;17.906;2023-12-28T00:46:55;99132.03;;;5.09;77.56
84501;BME280;74725;44.210;17.906;2023-12-28T00:52:02;99134.44;;;4.91;78.33
84501;BME280;74725;44.210;17.906;2023-12-28T00:54:29;99131.13;;;4.79;78.10
84501;BME280;74725;44.210;17.906;2023-12-28T00:56:55;99131.56;;;4.81;78.82
84501;BME280;74725;44.210;17.906;2023-12-28T01:02:02;99132.28;;;5.01;77.72
84501;BME280;74725;44.210;17.906;2023-12-28T01:04:28;99133.97;;;5.09;76.71
84501;BME280;74725;44.210;17.906;2023-12-28T01:06:53;99126.78;;;5.20;76.84
84501;BME280;74725;44.210;17.906;2023-12-28T01:14:42;99139.50;;;5.69;75.72
84501;BME280;74725;44.210;17.906;2023-12-28T01:17:07;99138.81;;;5.76;74.70
84501;BME280;74725;44.210;17.906;2023-12-28T01:46:34;99134.78;;;5.36;74.78
84501;BME280;74725;44.210;17.906;2023-12-28T02:36:09;99098.94;;;5.83;71.74
84501;BME280;74725;44.210;17.906;2023-12-28T02:38:37;99092.31;;;5.81;71.49
84501;BME280;74725;44.210;17.906;2023-12-28T03:35:04;99100.16;;;5.86;70.24
84501;BME280;74725;44.210;17.906;2023-12-28T03:37:29;99093.53;;;5.87;69.98
84501;BME280;74725;44.210;17.906;2023-12-28T03:48:01;99074.63;;;5.94;70.12
84501;BME280;74725;44.210;17.906;2023-12-28T03:58:29;99076.28;;;6.02;69.28
84501;BME280;74725;44.210;17.906;2023-12-28T04:19:49;99083.88;;;6.23;69.39
84501;BME280;74725;44.210;17.906;2023-12-28T04:22:15;99081.59;;;6.25;69.09
84501;BME280;74725;44.210;17.906;2023-12-28T04:24:40;99073.28;;;6.11;69.88
84501;BME280;74725;44.210;17.906;2023-12-28T04:27:06;99076.41;;;6.13;69.62
84501;BME280;74725;44.210;17.906;2023-12-28T04:32:13;99091.53;;;6.10;70.20
84501;BME280;74725;44.210;17.906;2023-12-28T04:34:38;99095.38;;;6.06;69.74
84501;BME280;74725;44.210;17.906;2023-12-28T04:37:04;99088.38;;;6.05;70.11
84501;BME280;74725;44.210;17.906;2023-12-28T04:39:30;99093.94;;;5.85;69.77
84501;BME280;74725;44.210;17.906;2023-12-28T04:41:55;99100.09;;;5.82;70.51
84501;BME280;74725;44.210;17.906;2023-12-28T04:44:21;99095.16;;;5.92;70.44
84501;BME280;74725;44.210;17.906;2023-12-28T04:46:47;99093.88;;;5.82;69.93
84501;BME280;74725;44.210;17.906;2023-12-28T04:49:13;99097.44;;;5.86;70.26
84501;BME280;74725;44.210;17.906;2023-12-28T05:07:43;99108.66;;;5.54;71.23
84501;BME280;74725;44.210;17.906;2023-12-28T05:15:32;99100.41;;;5.47;71.39
84501;BME280;74725;44.210;17.906;2023-12-28T05:17:57;99092.66;;;5.49;70.76
84501;BME280;74725;44.210;17.906;2023-12-28T05:28:29;99097.97;;;5.38;70.94
84501;BME280;74725;44.210;17.906;2023-12-28T05:33:36;99095.06;;;5.28;70.83
84501;BME280;74725;44.210;17.906;2023-12-28T05:36:02;99110.22;;;5.29;71.27
84501;BME280;74725;44.210;17.906;2023-12-28T05:38:27;99106.19;;;5.19;72.36
84501;BME280;74725;44.210;17.906;2023-12-28T05:48:58;99093.59;;;5.34;72.40
84501;BME280;74725;44.210;17.906;2023-12-28T05:53:59;99102.72;;;5.22;72.84
84501;BME280;74725;44.210;17.906;2023-12-28T05:56:25;99105.50;;;5.26;72.85
84501;BME280;74725;44.210;17.906;2023-12-28T05:58:50;99109.38;;;5.25;72.34
84501;BME280;74725;44.210;17.906;2023-12-28T06:09:22;99096.97;;;5.24;72.69
84501;BME280;74725;44.210;17.906;2023-12-28T06:11:47;99096.22;;;5.27;72.46
84501;BME280;74725;44.210;17.906;2023-12-28T06:14:13;99095.53;;;5.33;72.27
84501;BME280;74725;44.210;17.906;2023-12-28T06:16:39;99095.41;;;5.23;72.71
84501;BME280;74725;44.210;17.906;2023-12-28T06:19:04;99092.31;;;5.24;72.05
84501;BME280;74725;44.210;17.906;2023-12-28T06:21:31;99103.72;;;4.87;73.77
84501;BME280;74725;44.210;17.906;2023-12-28T06:23:58;99094.75;;;4.83;73.56
84501;BME280;74725;44.210;17.906;2023-12-28T06:26:24;99095.91;;;4.82;73.88
84501;BME280;74725;44.210;17.906;2023-12-28T06:28:49;99096.34;;;4.84;73.38
84501;BME280;74725;44.210;17.906;2023-12-28T06:33:56;99096.56;;;4.99;73.44
84501;BME280;74725;44.210;17.906;2023-12-28T06:36:22;99104.47;;;5.07;72.86
84501;BME280;74725;44.210;17.906;2023-12-28T06:38:47;99102.16;;;5.09;72.54
84501;BME280;74725;44.210;17.906;2023-12-28T06:41:13;99097.16;;;5.11;72.71
84501;BME280;74725;44.210;17.906;2023-12-28T06:43:39;99104.09;;;5.09;72.76
84501;BME280;74725;44.210;17.906;2023-12-28T06:46:05;99099.88;;;5.11;73.02
84501;BME280;74725;44.210;17.906;2023-12-28T06:48:31;99102.69;;;5.19;72.45
84501;BME280;74725;44.210;17.906;2023-12-28T06:50:59;99098.47;;;5.21;72.07
84501;BME280;74725;44.210;17.906;2023-12-28T06:53:30;99090.25;;;5.18;72.20
84501;BME280;74725;44.210;17.906;2023-12-28T06:55:56;99102.38;;;5.24;72.66
84501;BME280;74725;44.210;17.906;2023-12-28T06:58:32;99107.88;;;5.27;72.27
84501;BME280;74725;44.210;17.906;2023-12-28T07:01:44;99108.38;;;5.36;71.86
84501;BME280;74725;44.210;17.906;2023-12-28T07:04:45;99100.72;;;5.42;71.94
84501;BME280;74725;44.210;17.906;2023-12-28T07:07:52;99111.47;;;5.35;71.99
84501;BME280;74725;44.210;17.906;2023-12-28T07:10:19;99102.06;;;5.29;72.09
84501;BME280;74725;44.210;17.906;2023-12-28T07:12:45;99113.66;;;5.26;72.14
84501;BME280;74725;44.210;17.906;2023-12-28T07:15:22;99109.84;;;5.30;72.38
84501;BME280;74725;44.210;17.906;2023-12-28T07:18:08;99102.56;;;5.38;72.32
84501;BME280;74725;44.210;17.906;2023-12-28T07:20:49;99101.75;;;5.34;72.05
84501;BME280;74725;44.210;17.906;2023-12-28T07:23:16;99108.00;;;5.38;71.90
84501;BME280;74725;44.210;17.906;2023-12-28T07:25:45;99104.56;;;5.41;71.80
84501;BME280;74725;44.210;17.906;2023-12-28T07:28:12;99102.00;;;5.52;71.68
84501;BME280;74725;44.210;17.906;2023-12-28T07:30:37;99114.44;;;5.53;71.43
84501;BME280;74725;44.210;17.906;2023-12-28T07:33:04;99100.13;;;5.56;71.45
84501;BME280;74725;44.210;17.906;2023-12-28T07:35:29;99112.59;;;5.60;70.81
84501;BME280;74725;44.210;17.906;2023-12-28T07:37:55;99103.66;;;5.60;70.04
84501;BME280;74725;44.210;17.906;2023-12-28T07:40:21;99114.91;;;5.58;70.28
84501;BME280;74725;44.210;17.906;2023-12-28T07:42:48;99112.72;;;5.68;70.61
84501;BME280;74725;44.210;17.906;2023-12-28T07:45:14;99111.59;;;5.72;70.41
84501;BME280;74725;44.210;17.906;2023-12-28T07:47:44;99125.66;;;5.78;70.09
84501;BME280;74725;44.210;17.906;2023-12-28T07:50:10;99117.19;;;5.83;70.32
84501;BME280;74725;44.210;17.906;2023-12-28T07:52:36;99119.22;;;5.89;70.02
84501;BME280;74725;44.210;17.906;2023-12-28T07:55:03;99112.91;;;5.82;70.44
84501;BME280;74725;44.210;17.906;2023-12-28T07:57:29;99118.75;;;5.84;69.73
84501;BME280;74725;44.210;17.906;2023-12-28T08:00:22;99122.28;;;5.88;69.47
84501;BME280;74725;44.210;17.906;2023-12-28T08:03:05;99116.97;;;5.95;69.08
84501;BME280;74725;44.210;17.906;2023-12-28T08:05:31;99119.75;;;5.99;68.24
84501;BME280;74725;44.210;17.906;2023-12-28T08:07:57;99117.53;;;6.08;68.44
84501;BME280;74725;44.210;17.906;2023-12-28T08:10:22;99119.94;;;6.13;68.31
84501;BME280;74725;44.210;17.906;2023-12-28T08:12:48;99119.94;;;6.13;68.46
84501;BME280;74725;44.210;17.906;2023-12-28T08:15:14;99119.97;;;6.17;67.45
84501;BME280;74725;44.210;17.906;2023-12-28T08:17:39;99128.88;;;6.13;67.96
84501;BME280;74725;44.210;17.906;2023-12-28T08:20:06;99129.25;;;6.16;68.06
84501;BME280;74725;44.210;17.906;2023-12-28T08:22:32;99127.34;;;6.16;68.46
84501;BME280;74725;44.210;17.906;2023-12-28T08:24:57;99121.19;;;6.23;67.73
84501;BME280;74725;44.210;17.906;2023-12-28T08:27:23;99119.28;;;6.27;67.10
84501;BME280;74725;44.210;17.906;2023-12-28T08:29:49;99115.84;;;6.30;67.35
84501;BME280;74725;44.210;17.906;2023-12-28T08:32:15;99117.72;;;6.26;66.95
84501;BME280;74725;44.210;17.906;2023-12-28T08:34:42;99124.38;;;6.28;67.10
84501;BME280;74725;44.210;17.906;2023-12-28T08:37:08;99119.22;;;6.20;67.26
84501;BME280;74725;44.210;17.906;2023-12-28T08:39:35;99130.13;;;6.23;67.52
84501;BME280;74725;44.210;17.906;2023-12-28T08:42:05;99118.63;;;6.37;67.18
84501;BME280;74725;44.210;17.906;2023-12-28T08:44:31;99124.03;;;6.33;66.85
84501;BME280;74725;44.210;17.906;2023-12-28T08:47:02;99128.81;;;6.44;66.54
84501;BME280;74725;44.210;17.906;2023-12-28T08:49:28;99128.53;;;6.52;66.45
84501;BME280;74725;44.210;17.906;2023-12-28T08:51:54;99121.97;;;6.57;66.17
84501;BME280;74725;44.210;17.906;2023-12-28T08:54:20;99128.94;;;6.54;66.17
84501;BME280;74725;44.210;17.906;2023-12-28T08:56:46;99124.78;;;6.68;66.20
84501;BME280;74725;44.210;17.906;2023-12-28T08:59:16;99130.22;;;6.68;66.33
84501;BME280;74725;44.210;17.906;2023-12-28T09:01:54;99132.97;;;6.68;66.18
84501;BME280;74725;44.210;17.906;2023-12-28T09:04:23;99132.50;;;6.58;65.20
84501;BME280;74725;44.210;17.906;2023-12-28T09:06:49;99129.88;;;6.73;66.70
84501;BME280;74725;44.210;17.906;2023-12-28T09:09:14;99136.94;;;6.77;66.28
84501;BME280;74725;44.210;17.906;2023-12-28T09:11:41;99127.66;;;6.82;65.37
84501;BME280;74725;44.210;17.906;2023-12-28T09:14:12;99128.41;;;6.79;65.50
84501;BME280;74725;44.210;17.906;2023-12-28T09:16:52;99128.50;;;6.90;65.43
84501;BME280;74725;44.210;17.906;2023-12-28T09:19:30;99125.47;;;6.98;65.39
84501;BME280;74725;44.210;17.906;2023-12-28T09:22:34;99119.72;;;7.10;65.01
84501;BME280;74725;44.210;17.906;2023-12-28T09:25:19;99121.22;;;7.04;64.52
84501;BME280;74725;44.210;17.906;2023-12-28T09:27:45;99115.44;;;7.09;64.40
84501;BME280;74725;44.210;17.906;2023-12-28T09:30:11;99110.03;;;7.13;63.48
84501;BME280;74725;44.210;17.906;2023-12-28T09:32:37;99113.56;;;7.17;63.34
84501;BME280;74725;44.210;17.906;2023-12-28T09:35:03;99110.84;;;7.17;63.96
84501;BME280;74725;44.210;17.906;2023-12-28T09:37:30;99105.81;;;7.23;63.78
84501;BME280;74725;44.210;17.906;2023-12-28T09:39:55;99105.09;;;7.33;63.16
84501;BME280;74725;44.210;17.906;2023-12-28T09:42:40;99097.72;;;7.33;63.64
84501;BME280;74725;44.210;17.906;2023-12-28T09:45:18;99095.47;;;7.50;63.15
84501;BME280;74725;44.210;17.906;2023-12-28T09:47:44;99087.31;;;7.50;62.99
84501;BME280;74725;44.210;17.906;2023-12-28T09:50:11;99073.28;;;7.48;62.87
84501;BME280;74725;44.210;17.906;2023-12-28T09:52:38;99068.63;;;7.48;62.77
84501;BME280;74725;44.210;17.906;2023-12-28T09:55:04;99066.25;;;7.47;63.17
84501;BME280;74725;44.210;17.906;2023-12-28T09:57:29;99060.06;;;7.53;62.47
84501;BME280;74725;44.210;17.906;2023-12-28T09:59:56;99061.69;;;7.65;63.04
84501;BME280;74725;44.210;17.906;2023-12-28T10:02:23;99065.13;;;7.51;63.18
84501;BME280;74725;44.210;17.906;2023-12-28T10:04:48;99052.31;;;7.63;63.60
84501;BME280;74725;44.210;17.906;2023-12-28T10:07:14;99047.34;;;7.75;62.83
84501;BME280;74725;44.210;17.906;2023-12-28T10:09:41;99048.88;;;7.76;62.14
84501;BME280;74725;44.210;17.906;2023-12-28T10:12:07;99035.97;;;7.66;62.51
84501;BME280;74725;44.210;17.906;2023-12-28T10:14:33;99034.81;;;7.64;62.41
84501;BME280;74725;44.210;17.906;2023-12-28T10:17:00;99026.31;;;7.83;61.90
84501;BME280;74725;44.210;17.906;2023-12-28T10:19:40;99024.41;;;7.94;62.13
84501;BME280;74725;44.210;17.906;2023-12-28T10:22:06;99013.16;;;8.10;61.42
84501;BME280;74725;44.210;17.906;2023-12-28T10:24:32;99008.84;;;8.09;61.68
84501;BME280;74725;44.210;17.906;2023-12-28T10:26:57;99010.00;;;7.97;62.20
84501;BME280;74725;44.210;17.906;2023-12-28T10:29:26;99007.66;;;7.92;61.76
84501;BME280;74725;44.210;17.906;2023-12-28T10:31:51;98996.34;;;7.90;61.72
84501;BME280;74725;44.210;17.906;2023-12-28T10:34:18;99000.69;;;8.02;61.19
84501;BME280;74725;44.210;17.906;2023-12-28T10:36:45;98993.63;;;7.87;61.58
84501;BME280;74725;44.210;17.906;2023-12-28T10:39:11;98993.56;;;7.72;62.53
84501;BME280;74725;44.210;17.906;2023-12-28T10:41:41;98981.44;;;7.63;62.71
84501;BME280;74725;44.210;17.906;2023-12-28T10:44:10;98994.63;;;7.46;63.42
84501;BME280;74725;44.210;17.906;2023-12-28T10:46:40;98984.13;;;7.48;63.35
84501;BME280;74725;44.210;17.906;2023-12-28T10:49:12;98980.25;;;7.53;63.51
84501;BME280;74725;44.210;17.906;2023-12-28T10:51:43;98981.38;;;7.41;64.61
84501;BME280;74725;44.210;17.906;2023-12-28T10:57:22;98966.56;;;7.42;62.79
84501;BME280;74725;44.210;17.906;2023-12-28T11:00:09;98964.63;;;7.46;63.60
84501;BME280;74725;44.210;17.906;2023-12-28T11:02:44;98963.19;;;7.67;63.04
84501;BME280;74725;44.210;17.906;2023-12-28T11:05:15;98946.84;;;7.84;62.89
84501;BME280;74725;44.210;17.906;2023-12-28T11:07:42;98955.44;;;8.01;61.63
84501;BME280;74725;44.210;17.906;2023-12-28T11:10:09;98946.50;;;8.04;61.79
84501;BME280;74725;44.210;17.906;2023-12-28T11:12:37;98943.78;;;8.11;61.63
84501;BME280;74725;44.210;17.906;2023-12-28T11:15:05;98931.72;;;8.30;60.83
84501;BME280;74725;44.210;17.906;2023-12-28T11:17:44;98931.72;;;8.48;61.48
84501;BME280;74725;44.210;17.906;2023-12-28T11:20:31;98925.09;;;8.67;61.00
84501;BME280;74725;44.210;17.906;2023-12-28T11:22:58;98920.44;;;8.46;60.36
84501;BME280;74725;44.210;17.906;2023-12-28T11:25:31;98923.53;;;8.33;60.33
84501;BME280;74725;44.210;17.906;2023-12-28T11:27:57;98917.72;;;8.53;61.55
84501;BME280;74725;44.210;17.906;2023-12-28T11:30:26;98900.91;;;8.69;61.05
84501;BME280;74725;44.210;17.906;2023-12-28T11:32:56;98904.41;;;8.87;60.15
84501;BME280;74725;44.210;17.906;2023-12-28T11:35:52;98899.63;;;9.09;59.63
84501;BME280;74725;44.210;17.906;2023-12-28T11:38:38;98895.41;;;8.90;59.67
84501;BME280;74725;44.210;17.906;2023-12-28T11:41:06;98897.72;;;9.02;59.33
84501;BME280;74725;44.210;17.906;2023-12-28T11:43:34;98894.53;;;9.18;59.13
84501;BME280;74725;44.210;17.906;2023-12-28T11:46:01;98885.88;;;9.34;58.99
84501;BME280;74725;44.210;17.906;2023-12-28T11:48:30;98882.72;;;9.43;57.57
84501;BME280;74725;44.210;17.906;2023-12-28T11:50:57;98881.94;;;9.39;58.08
84501;BME280;74725;44.210;17.906;2023-12-28T11:53:24;98882.75;;;9.32;59.24
84501;BME280;74725;44.210;17.906;2023-12-28T11:55:51;98882.78;;;9.25;58.05
84501;BME280;74725;44.210;17.906;2023-12-28T11:58:18;98876.22;;;9.12;58.56
84501;BME280;74725;44.210;17.906;2023-12-28T12:00:44;98879.69;;;9.19;58.27
84501;BME280;74725;44.210;17.906;2023-12-28T12:03:13;98876.66;;;8.99;59.48
84501;BME280;74725;44.210;17.906;2023-12-28T12:05:39;98868.44;;;9.06;59.64
84501;BME280;74725;44.210;17.906;2023-12-28T12:08:06;98873.53;;;8.97;59.74
84501;BME280;74725;44.210;17.906;2023-12-28T12:10:34;98869.25;;;8.89;59.38
84501;BME280;74725;44.210;17.906;2023-12-28T12:13:00;98859.88;;;8.87;60.07
84501;BME280;74725;44.210;17.906;2023-12-28T12:15:29;98864.22;;;8.77;60.60
84501;BME280;74725;44.210;17.906;2023-12-28T12:17:55;98857.56;;;8.81;60.71
84501;BME280;74725;44.210;17.906;2023-12-28T12:20:21;98848.63;;;8.74;60.89
84501;BME280;74725;44.210;17.906;2023-12-28T12:22:47;98844.38;;;8.62;60.82
84501;BME280;74725;44.210;17.906;2023-12-28T12:25:13;98834.63;;;8.36;61.91
84501;BME280;74725;44.210;17.906;2023-12-28T12:27:39;98840.91;;;8.12;62.86
84501;BME280;74725;44.210;17.906;2023-12-28T12:30:05;98830.75;;;8.01;62.72
84501;BME280;74725;44.210;17.906;2023-12-28T12:35:12;98824.91;;;7.81;63.87
84501;BME280;74725;44.210;17.906;2023-12-28T12:37:40;98821.03;;;7.79;64.08
84501;BME280;74725;44.210;17.906;2023-12-28T12:40:06;98819.09;;;7.79;64.46
84501;BME280;74725;44.210;17.906;2023-12-28T12:45:08;98804.69;;;7.72;64.49
84501;BME280;74725;44.210;17.906;2023-12-28T12:47:34;98811.25;;;7.49;65.42
84501;BME280;74725;44.210;17.906;2023-12-28T12:50:03;98805.41;;;7.40;66.12
84501;BME280;74725;44.210;17.906;2023-12-28T13:00:35;98784.81;;;7.60;65.84
84501;BME280;74725;44.210;17.906;2023-12-28T13:08:44;98777.41;;;7.72;65.42
84501;BME280;74725;44.210;17.906;2023-12-28T13:11:10;98776.63;;;7.68;65.71
84501;BME280;74725;44.210;17.906;2023-12-28T13:13:36;98768.81;;;7.70;65.76
84501;BME280;74725;44.210;17.906;2023-12-28T13:16:03;98772.34;;;7.74;65.31
84501;BME280;74725;44.210;17.906;2023-12-28T13:18:28;98778.56;;;7.74;65.42
84501;BME280;74725;44.210;17.906;2023-12-28T13:20:54;98776.25;;;7.76;65.44
84501;BME280;74725;44.210;17.906;2023-12-28T13:23:20;98784.81;;;7.75;65.77
84501;BME280;74725;44.210;17.906;2023-12-28T13:25:46;98775.06;;;7.74;65.98
84501;BME280;74725;44.210;17.906;2023-12-28T13:28:12;98782.47;;;7.77;65.68
84501;BME280;74725;44.210;17.906;2023-12-28T13:30:38;98790.66;;;7.73;66.55
84501;BME280;74725;44.210;17.906;2023-12-28T13:33:04;98789.47;;;7.64;66.99
84501;BME280;74725;44.210;17.906;2023-12-28T13:35:30;98791.41;;;7.74;66.97
84501;BME280;74725;44.210;17.906;2023-12-28T13:37:59;98777.78;;;7.70;67.31
84501;BME280;74725;44.210;17.906;2023-12-28T13:40:24;98787.53;;;7.68;67.73
84501;BME280;74725;44.210;17.906;2023-12-28T13:42:50;98791.81;;;7.65;67.88
84501;BME280;74725;44.210;17.906;2023-12-28T13:45:16;98771.97;;;7.68;67.68
84501;BME280;74725;44.210;17.906;2023-12-28T13:47:43;98768.81;;;7.70;67.56
84501;BME280;74725;44.210;17.906;2023-12-28T13:50:10;98767.28;;;7.69;67.56
84501;BME280;74725;44.210;17.906;2023-12-28T13:52:35;98766.09;;;7.70;67.38
84501;BME280;74725;44.210;17.906;2023-12-28T13:55:01;98755.59;;;7.68;67.68
84501;BME280;74725;44.210;17.906;2023-12-28T13:57:27;98761.44;;;7.59;68.27
84501;BME280;74725;44.210;17.906;2023-12-28T13:59:52;98755.22;;;7.55;68.88
84501;BME280;74725;44.210;17.906;2023-12-28T14:02:18;98751.69;;;7.55;68.43
84501;BME280;74725;44.210;17.906;2023-12-28T14:04:43;98752.84;;;7.50;68.88
84501;BME280;74725;44.210;17.906;2023-12-28T14:07:09;98764.16;;;7.45;69.26
84501;BME280;74725;44.210;17.906;2023-12-28T14:09:35;98765.34;;;7.44;69.15
84501;BME280;74725;44.210;17.906;2023-12-28T14:12:01;98767.63;;;7.35;69.57
84501;BME280;74725;44.210;17.906;2023-12-28T14:14:27;98759.88;;;7.37;69.73
84501;BME280;74725;44.210;17.906;2023-12-28T14:16:52;98759.47;;;7.35;69.91
84501;BME280;74725;44.210;17.906;2023-12-28T14:19:18;98756.72;;;7.35;69.67
84501;BME280;74725;44.210;17.906;2023-12-28T14:21:44;98761.41;;;7.34;69.36
84501;BME280;74725;44.210;17.906;2023-12-28T14:24:10;98766.06;;;7.27;70.04
84501;BME280;74725;44.210;17.906;2023-12-28T14:26:41;98757.50;;;7.18;70.41
84501;BME280;74725;44.210;17.906;2023-12-28T14:29:10;98760.22;;;7.14;70.38
84501;BME280;74725;44.210;17.906;2023-12-28T14:31:37;98766.41;;;7.04;71.11
84501;BME280;74725;44.210;17.906;2023-12-28T14:34:03;98766.78;;;6.95;70.86
84501;BME280;74725;44.210;17.906;2023-12-28T14:36:34;98756.28;;;6.90;70.92
84501;BME280;74725;44.210;17.906;2023-12-28T14:39:16;98752.75;;;6.82;71.22
84501;BME280;74725;44.210;17.906;2023-12-28T14:42:07;98743.78;;;6.78;71.58
84501;BME280;74725;44.210;17.906;2023-12-28T14:44:33;98743.34;;;6.69;71.76
84501;BME280;74725;44.210;17.906;2023-12-28T14:46:59;98749.16;;;6.60;71.85
84501;BME280;74725;44.210;17.906;2023-12-28T14:49:24;98754.56;;;6.57;72.43
84501;BME280;74725;44.210;17.906;2023-12-28T14:51:50;98740.97;;;6.53;72.89
84501;BME280;74725;44.210;17.906;2023-12-28T14:54:15;98751.47;;;6.51;72.68
84501;BME280;74725;44.210;17.906;2023-12-28T14:56:41;98764.59;;;6.38;73.42
84501;BME280;74725;44.210;17.906;2023-12-28T14:59:07;98759.91;;;6.32;73.32
84501;BME280;74725;44.210;17.906;2023-12-28T15:01:33;98748.63;;;6.30;73.32
84501;BME280;74725;44.210;17.906;2023-12-28T15:06:40;98745.84;;;6.23;74.03
84501;BME280;74725;44.210;17.906;2023-12-28T15:09:06;98744.66;;;6.17;73.77
84501;BME280;74725;44.210;17.906;2023-12-28T15:11:31;98740.34;;;6.05;73.99
84501;BME280;74725;44.210;17.906;2023-12-28T15:16:39;98746.84;;;5.93;74.87
84501;BME280;74725;44.210;17.906;2023-12-28T15:19:05;98756.09;;;5.85;75.29
84501;BME280;74725;44.210;17.906;2023-12-28T15:21:32;98757.59;;;5.79;75.55
84501;BME280;74725;44.210;17.906;2023-12-28T15:26:34;98753.63;;;5.69;74.96
84501;BME280;74725;44.210;17.906;2023-12-28T15:29:00;98767.56;;;5.64;74.54
84501;BME280;74725;44.210;17.906;2023-12-28T15:31:29;98760.50;;;5.56;74.81
84501;BME280;74725;44.210;17.906;2023-12-28T15:36:37;98760.34;;;5.34;76.46
84501;BME280;74725;44.210;17.906;2023-12-28T15:39:03;98772.34;;;5.33;76.29
84501;BME280;74725;44.210;17.906;2023-12-28T15:41:30;98773.06;;;5.27;76.51
84501;BME280;74725;44.210;17.906;2023-12-28T15:43:56;98771.88;;;5.24;76.06
84501;BME280;74725;44.210;17.906;2023-12-28T15:46:22;98779.16;;;5.17;76.04
84501;BME280;74725;44.210;17.906;2023-12-28T15:48:47;98774.06;;;5.11;76.39
84501;BME280;74725;44.210;17.906;2023-12-28T15:51:13;98779.00;;;5.02;76.58
84501;BME280;74725;44.210;17.906;2023-12-28T15:56:21;98775.38;;;4.91;77.18
84501;BME280;74725;44.210;17.906;2023-12-28T15:58:47;98766.88;;;4.93;76.92
84501;BME280;74725;44.210;17.906;2023-12-28T16:01:12;98771.91;;;4.90;77.08
84501;BME280;74725;44.210;17.906;2023-12-28T16:09:02;98778.78;;;4.81;77.01
84501;BME280;74725;44.210;17.906;2023-12-28T16:11:30;98789.16;;;4.75;77.34
84501;BME280;74725;44.210;17.906;2023-12-28T16:16:37;98787.16;;;4.69;77.31
84501;BME280;74725;44.210;17.906;2023-12-28T16:19:03;98783.66;;;4.68;77.49
84501;BME280;74725;44.210;17.906;2023-12-28T16:21:30;98787.13;;;4.65;77.22
84501;BME280;74725;44.210;17.906;2023-12-28T16:37:19;98806.59;;;4.44;78.43
84501;BME280;74725;44.210;17.906;2023-12-28T16:39:44;98797.63;;;4.40;78.42
84501;BME280;74725;44.210;17.906;2023-12-28T16:42:10;98801.44;;;4.35;78.26
84501;BME280;74725;44.210;17.906;2023-12-28T16:52:41;98803.88;;;4.17;78.19
84501;BME280;74725;44.210;17.906;2023-12-28T17:05:54;98810.88;;;3.92;78.19
84501;BME280;74725;44.210;17.906;2023-12-28T17:08:20;98817.84;;;3.93;77.87
84501;BME280;74725;44.210;17.906;2023-12-28T17:10:45;98814.31;;;3.89;78.31
84501;BME280;74725;44.210;17.906;2023-12-28T17:13:12;98827.44;;;3.87;78.18
84501;BME280;74725;44.210;17.906;2023-12-28T17:23:51;98840.03;;;3.76;78.84
84501;BME280;74725;44.210;17.906;2023-12-28T17:31:37;98840.13;;;3.83;80.65
84501;BME280;74725;44.210;17.906;2023-12-28T17:34:04;98846.03;;;3.88;79.23
84501;BME280;74725;44.210;17.906;2023-12-28T17:55:24;98842.38;;;4.00;76.82
84501;BME280;74725;44.210;17.906;2023-12-28T17:57:50;98855.97;;;4.04;77.32
84501;BME280;74725;44.210;17.906;2023-12-28T18:00:16;98846.63;;;4.01;77.25
84501;BME280;74725;44.210;17.906;2023-12-28T18:02:41;98847.28;;;3.95;76.96
84501;BME280;74725;44.210;17.906;2023-12-28T18:07:49;98853.81;;;3.90;77.05
84501;BME280;74725;44.210;17.906;2023-12-28T18:10:14;98854.19;;;3.88;76.68
84501;BME280;74725;44.210;17.906;2023-12-28T18:12:40;98849.09;;;3.87;76.89
84501;BME280;74725;44.210;17.906;2023-12-28T18:17:54;98840.81;;;3.99;76.63
84501;BME280;74725;44.210;17.906;2023-12-28T18:20:19;98850.97;;;4.06;76.64
84501;BME280;74725;44.210;17.906;2023-12-28T18:22:45;98862.22;;;4.08;77.62
84501;BME280;74725;44.210;17.906;2023-12-28T18:27:53;98862.41;;;4.19;76.69
84501;BME280;74725;44.210;17.906;2023-12-28T18:30:18;98853.56;;;4.25;75.88
84501;BME280;74725;44.210;17.906;2023-12-28T18:32:44;98860.09;;;4.21;75.81
84501;BME280;74725;44.210;17.906;2023-12-28T18:37:51;98868.81;;;4.33;76.24
84501;BME280;74725;44.210;17.906;2023-12-28T18:40:17;98856.06;;;4.37;75.96
84501;BME280;74725;44.210;17.906;2023-12-28T18:42:42;98872.41;;;4.41;75.76
84501;BME280;74725;44.210;17.906;2023-12-28T18:50:32;98865.97;;;4.49;75.72
84501;BME280;74725;44.210;17.906;2023-12-28T18:52:57;98869.50;;;4.53;75.81
84501;BME280;74725;44.210;17.906;2023-12-28T18:55:23;98861.78;;;4.55;75.87
84501;BME280;74725;44.210;17.906;2023-12-28T18:57:49;98876.66;;;4.65;75.31
84501;BME280;74725;44.210;17.906;2023-12-28T19:00:14;98867.69;;;4.64;75.38
84501;BME280;74725;44.210;17.906;2023-12-28T19:02:40;98868.19;;;4.70;74.63
84501;BME280;74725;44.210;17.906;2023-12-28T19:51:00;98870.13;;;5.00;73.21
84501;BME280;74725;44.210;17.906;2023-12-28T19:53:26;98872.44;;;5.01;73.59
84501;BME280;74725;44.210;17.906;2023-12-28T20:20:11;98871.38;;;5.09;72.92
84501;BME280;74725;44.210;17.906;2023-12-28T20:22:36;98875.75;;;5.18;72.39
84501;BME280;74725;44.210;17.906;2023-12-28T20:25:02;98873.41;;;5.16;71.97
84501;BME280;74725;44.210;17.906;2023-12-28T22:04:10;98903.16;;;4.26;73.41
